sensor_id;sensor_type;location;lat;lon;timestamp;P1;durP1;ratioP1;P2;durP2;ratioP2
49840;SDS011;35738;49.890;5.930;2024-01-15T00:01:58;106.33;;;27.10;;
49840;SDS011;35738;49.890;5.930;2024-01-15T00:04:25;108.60;;;29.90;;
49840;SDS011;35738;49.890;5.930;2024-01-15T00:06:51;107.53;;;28.00;;
49840;SDS011;35738;49.890;5.930;2024-01-15T00:09:18;100.93;;;25.67;;
49840;SDS011;35738;49.890;5.930;2024-01-15T00:11:44;115.87;;;28.20;;
49840;SDS011;35738;49.890;5.930;2024-01-15T00:14:12;100.93;;;26.30;;
49840;SDS011;35738;49.890;5.930;2024-01-15T00:16:40;83.83;;;23.17;;
49840;SDS011;35738;49.890;5.930;2024-01-15T00:19:07;106.70;;;26.07;;
49840;SDS011;35738;49.890;5.930;2024-01-15T00:21:34;108.27;;;24.87;;
49840;SDS011;35738;49.890;5.930;2024-01-15T00:24:00;101.83;;;28.50;;
49840;SDS011;35738;49.890;5.930;2024-01-15T00:26:27;109.27;;;29.47;;
49840;SDS011;35738;49.890;5.930;2024-01-15T00:28:53;89.27;;;21.60;;
49840;SDS011;35738;49.890;5.930;2024-01-15T00:31:19;105.23;;;30.23;;
49840;SDS011;35738;49.890;5.930;2024-01-15T00:33:46;104.37;;;28.37;;
49840;SDS011;35738;49.890;5.930;2024-01-15T00:36:13;108.97;;;26.27;;
49840;SDS011;35738;49.890;5.930;2024-01-15T00:38:40;100.10;;;27.53;;
49840;SDS011;35738;49.890;5.930;2024-01-15T00:41:07;117.37;;;29.33;;
49840;SDS011;35738;49.890;5.930;2024-01-15T00:43:33;112.10;;;25.33;;
49840;SDS011;35738;49.890;5.930;2024-01-15T00:46:01;121.20;;;29.73;;
49840;SDS011;35738;49.890;5.930;2024-01-15T00:48:28;108.20;;;25.50;;
49840;SDS011;35738;49.890;5.930;2024-01-15T00:50:55;115.47;;;26.10;;
49840;SDS011;35738;49.890;5.930;2024-01-15T00:53:21;108.17;;;24.57;;
49840;SDS011;35738;49.890;5.930;2024-01-15T00:55:48;100.37;;;24.07;;
49840;SDS011;35738;49.890;5.930;2024-01-15T00:58:15;104.03;;;27.77;;
49840;SDS011;35738;49.890;5.930;2024-01-15T01:00:42;101.47;;;23.87;;
49840;SDS011;35738;49.890;5.930;2024-01-15T01:03:08;108.33;;;25.47;;
49840;SDS011;35738;49.890;5.930;2024-01-15T01:05:35;104.50;;;25.83;;
49840;SDS011;35738;49.890;5.930;2024-01-15T01:08:02;117.47;;;25.90;;
49840;SDS011;35738;49.890;5.930;2024-01-15T01:10:29;113.30;;;27.07;;
49840;SDS011;35738;49.890;5.930;2024-01-15T01:12:55;127.07;;;28.13;;
49840;SDS011;35738;49.890;5.930;2024-01-15T01:15:22;115.63;;;27.00;;
49840;SDS011;35738;49.890;5.930;2024-01-15T01:17:48;114.20;;;27.83;;
49840;SDS011;35738;49.890;5.930;2024-01-15T01:20:16;132.93;;;29.40;;
49840;SDS011;35738;49.890;5.930;2024-01-15T01:22:44;140.17;;;33.53;;
49840;SDS011;35738;49.890;5.930;2024-01-15T01:25:11;128.37;;;29.00;;
49840;SDS011;35738;49.890;5.930;2024-01-15T01:27:37;141.17;;;32.97;;
49840;SDS011;35738;49.890;5.930;2024-01-15T01:30:04;144.60;;;33.03;;
49840;SDS011;35738;49.890;5.930;2024-01-15T01:32:31;94.17;;;21.00;;
49840;SDS011;35738;49.890;5.930;2024-01-15T01:34:58;134.77;;;30.33;;
49840;SDS011;35738;49.890;5.930;2024-01-15T01:37:25;128.13;;;31.00;;
49840;SDS011;35738;49.890;5.930;2024-01-15T01:39:51;126.03;;;29.23;;
49840;SDS011;35738;49.890;5.930;2024-01-15T01:42:18;129.07;;;31.73;;
49840;SDS011;35738;49.890;5.930;2024-01-15T01:44:44;157.87;;;37.83;;
49840;SDS011;35738;49.890;5.930;2024-01-15T01:47:11;134.80;;;33.20;;
49840;SDS011;35738;49.890;5.930;2024-01-15T01:49:38;133.77;;;36.30;;
49840;SDS011;35738;49.890;5.930;2024-01-15T01:52:05;134.80;;;33.10;;
49840;SDS011;35738;49.890;5.930;2024-01-15T01:54:35;103.03;;;24.63;;
49840;SDS011;35738;49.890;5.930;2024-01-15T01:57:03;115.90;;;28.00;;
49840;SDS011;35738;49.890;5.930;2024-01-15T01:59:32;137.30;;;30.20;;
49840;SDS011;35738;49.890;5.930;2024-01-15T02:02:00;114.03;;;23.77;;
49840;SDS011;35738;49.890;5.930;2024-01-15T02:04:29;120.70;;;31.87;;
49840;SDS011;35738;49.890;5.930;2024-01-15T02:06:58;136.07;;;33.00;;
49840;SDS011;35738;49.890;5.930;2024-01-15T02:09:25;132.80;;;32.03;;
49840;SDS011;35738;49.890;5.930;2024-01-15T02:11:52;121.53;;;27.90;;
49840;SDS011;35738;49.890;5.930;2024-01-15T02:14:18;133.57;;;30.63;;
49840;SDS011;35738;49.890;5.930;2024-01-15T02:16:45;135.57;;;33.77;;
49840;SDS011;35738;49.890;5.930;2024-01-15T02:19:15;121.37;;;28.80;;
49840;SDS011;35738;49.890;5.930;2024-01-15T02:21:43;125.80;;;33.70;;
49840;SDS011;35738;49.890;5.930;2024-01-15T02:24:10;127.77;;;31.00;;
49840;SDS011;35738;49.890;5.930;2024-01-15T02:26:37;123.53;;;30.50;;
49840;SDS011;35738;49.890;5.930;2024-01-15T02:29:07;114.23;;;30.57;;
49840;SDS011;35738;49.890;5.930;2024-01-15T02:31:38;128.93;;;34.17;;
49840;SDS011;35738;49.890;5.930;2024-01-15T02:34:05;102.57;;;24.53;;
49840;SDS011;35738;49.890;5.930;2024-01-15T02:36:32;119.80;;;30.47;;
49840;SDS011;35738;49.890;5.930;2024-01-15T02:38:58;117.40;;;28.60;;
49840;SDS011;35738;49.890;5.930;2024-01-15T02:41:25;119.37;;;29.13;;
49840;SDS011;35738;49.890;5.930;2024-01-15T02:43:51;113.37;;;28.70;;
49840;SDS011;35738;49.890;5.930;2024-01-15T02:46:18;117.33;;;33.67;;
49840;SDS011;35738;49.890;5.930;2024-01-15T02:48:44;106.50;;;26.27;;
49840;SDS011;35738;49.890;5.930;2024-01-15T02:51:11;101.63;;;27.13;;
49840;SDS011;35738;49.890;5.930;2024-01-15T02:53:38;107.83;;;31.53;;
49840;SDS011;35738;49.890;5.930;2024-01-15T02:56:06;87.43;;;23.67;;
49840;SDS011;35738;49.890;5.930;2024-01-15T02:58:33;111.63;;;31.77;;
49840;SDS011;35738;49.890;5.930;2024-01-15T03:01:00;113.33;;;31.73;;
49840;SDS011;35738;49.890;5.930;2024-01-15T03:03:27;100.40;;;27.33;;
49840;SDS011;35738;49.890;5.930;2024-01-15T03:05:54;112.10;;;28.60;;
49840;SDS011;35738;49.890;5.930;2024-01-15T03:08:20;92.97;;;26.77;;
49840;SDS011;35738;49.890;5.930;2024-01-15T03:10:49;102.83;;;28.70;;
49840;SDS011;35738;49.890;5.930;2024-01-15T03:13:15;92.37;;;26.23;;
49840;SDS011;35738;49.890;5.930;2024-01-15T03:15:42;108.67;;;28.00;;
49840;SDS011;35738;49.890;5.930;2024-01-15T03:18:09;89.13;;;27.37;;
49840;SDS011;35738;49.890;5.930;2024-01-15T03:20:36;95.70;;;26.20;;
49840;SDS011;35738;49.890;5.930;2024-01-15T03:23:03;77.70;;;21.37;;
49840;SDS011;35738;49.890;5.930;2024-01-15T03:25:29;80.43;;;22.83;;
49840;SDS011;35738;49.890;5.930;2024-01-15T03:27:56;83.33;;;25.33;;
49840;SDS011;35738;49.890;5.930;2024-01-15T03:30:23;97.87;;;24.03;;
49840;SDS011;35738;49.890;5.930;2024-01-15T03:32:49;105.57;;;30.87;;
49840;SDS011;35738;49.890;5.930;2024-01-15T03:35:16;96.20;;;27.03;;
49840;SDS011;35738;49.890;5.930;2024-01-15T03:37:43;105.37;;;26.27;;
49840;SDS011;35738;49.890;5.930;2024-01-15T03:40:09;104.67;;;26.20;;
49840;SDS011;35738;49.890;5.930;2024-01-15T03:42:36;114.17;;;30.73;;
49840;SDS011;35738;49.890;5.930;2024-01-15T03:45:03;103.80;;;28.53;;
49840;SDS011;35738;49.890;5.930;2024-01-15T03:47:30;98.40;;;28.13;;
49840;SDS011;35738;49.890;5.930;2024-01-15T03:49:57;111.70;;;29.93;;
49840;SDS011;35738;49.890;5.930;2024-01-15T03:52:23;100.23;;;29.93;;
49840;SDS011;35738;49.890;5.930;2024-01-15T03:54:49;105.53;;;28.50;;
49840;SDS011;35738;49.890;5.930;2024-01-15T03:57:16;111.40;;;28.17;;
49840;SDS011;35738;49.890;5.930;2024-01-15T03:59:43;101.17;;;31.63;;
49840;SDS011;35738;49.890;5.930;2024-01-15T04:02:09;102.40;;;29.23;;
49840;SDS011;35738;49.890;5.930;2024-01-15T04:04:36;95.83;;;29.27;;
49840;SDS011;35738;49.890;5.930;2024-01-15T04:07:06;106.37;;;24.60;;
49840;SDS011;35738;49.890;5.930;2024-01-15T04:09:33;95.63;;;26.67;;
49840;SDS011;35738;49.890;5.930;2024-01-15T04:11:59;98.17;;;29.77;;
49840;SDS011;35738;49.890;5.930;2024-01-15T04:14:26;88.80;;;27.10;;
49840;SDS011;35738;49.890;5.930;2024-01-15T04:16:52;94.83;;;29.23;;
49840;SDS011;35738;49.890;5.930;2024-01-15T04:19:19;99.43;;;29.83;;
49840;SDS011;35738;49.890;5.930;2024-01-15T04:21:46;70.27;;;21.27;;
49840;SDS011;35738;49.890;5.930;2024-01-15T04:24:13;87.83;;;26.57;;
49840;SDS011;35738;49.890;5.930;2024-01-15T04:26:39;78.70;;;24.70;;
49840;SDS011;35738;49.890;5.930;2024-01-15T04:29:06;75.57;;;23.37;;
49840;SDS011;35738;49.890;5.930;2024-01-15T04:31:32;76.40;;;23.73;;
49840;SDS011;35738;49.890;5.930;2024-01-15T04:33:59;75.37;;;25.90;;
49840;SDS011;35738;49.890;5.930;2024-01-15T04:36:26;66.17;;;20.10;;
49840;SDS011;35738;49.890;5.930;2024-01-15T04:38:52;73.83;;;23.67;;
49840;SDS011;35738;49.890;5.930;2024-01-15T04:41:22;60.30;;;16.53;;
49840;SDS011;35738;49.890;5.930;2024-01-15T04:43:49;71.60;;;22.60;;
49840;SDS011;35738;49.890;5.930;2024-01-15T04:46:15;70.47;;;22.37;;
49840;SDS011;35738;49.890;5.930;2024-01-15T04:48:42;71.70;;;20.77;;
49840;SDS011;35738;49.890;5.930;2024-01-15T04:51:09;75.87;;;28.60;;
49840;SDS011;35738;49.890;5.930;2024-01-15T04:53:35;72.03;;;23.93;;
49840;SDS011;35738;49.890;5.930;2024-01-15T04:56:02;66.83;;;22.37;;
49840;SDS011;35738;49.890;5.930;2024-01-15T04:58:28;53.87;;;16.30;;
49840;SDS011;35738;49.890;5.930;2024-01-15T05:00:55;77.17;;;24.03;;
49840;SDS011;35738;49.890;5.930;2024-01-15T05:03:22;62.50;;;20.27;;
49840;SDS011;35738;49.890;5.930;2024-01-15T05:05:49;72.23;;;24.53;;
49840;SDS011;35738;49.890;5.930;2024-01-15T05:08:15;68.43;;;22.67;;
49840;SDS011;35738;49.890;5.930;2024-01-15T05:10:43;58.63;;;21.03;;
49840;SDS011;35738;49.890;5.930;2024-01-15T05:13:09;61.60;;;21.63;;
49840;SDS011;35738;49.890;5.930;2024-01-15T05:15:36;72.37;;;23.77;;
49840;SDS011;35738;49.890;5.930;2024-01-15T05:18:03;68.20;;;25.20;;
49840;SDS011;35738;49.890;5.930;2024-01-15T05:20:30;61.47;;;21.17;;
49840;SDS011;35738;49.890;5.930;2024-01-15T05:22:56;69.23;;;24.63;;
49840;SDS011;35738;49.890;5.930;2024-01-15T05:25:23;66.50;;;24.33;;
49840;SDS011;35738;49.890;5.930;2024-01-15T05:27:49;69.50;;;22.23;;
49840;SDS011;35738;49.890;5.930;2024-01-15T05:30:16;61.90;;;21.50;;
49840;SDS011;35738;49.890;5.930;2024-01-15T05:32:43;65.17;;;23.80;;
49840;SDS011;35738;49.890;5.930;2024-01-15T05:35:09;72.17;;;22.57;;
49840;SDS011;35738;49.890;5.930;2024-01-15T05:37:36;62.23;;;23.57;;
49840;SDS011;35738;49.890;5.930;2024-01-15T05:40:03;73.50;;;24.87;;
49840;SDS011;35738;49.890;5.930;2024-01-15T05:42:30;71.33;;;22.17;;
49840;SDS011;35738;49.890;5.930;2024-01-15T05:44:58;64.83;;;22.30;;
49840;SDS011;35738;49.890;5.930;2024-01-15T05:47:25;59.87;;;19.33;;
49840;SDS011;35738;49.890;5.930;2024-01-15T05:49:52;76.23;;;22.67;;
49840;SDS011;35738;49.890;5.930;2024-01-15T05:52:20;67.07;;;22.47;;
49840;SDS011;35738;49.890;5.930;2024-01-15T05:54:47;73.67;;;26.83;;
49840;SDS011;35738;49.890;5.930;2024-01-15T05:57:14;78.33;;;24.47;;
49840;SDS011;35738;49.890;5.930;2024-01-15T05:59:41;86.97;;;25.00;;
49840;SDS011;35738;49.890;5.930;2024-01-15T06:02:07;80.43;;;25.20;;
49840;SDS011;35738;49.890;5.930;2024-01-15T06:04:33;82.53;;;24.03;;
49840;SDS011;35738;49.890;5.930;2024-01-15T06:07:00;76.37;;;22.20;;
49840;SDS011;35738;49.890;5.930;2024-01-15T06:09:27;82.20;;;22.93;;
49840;SDS011;35738;49.890;5.930;2024-01-15T06:11:54;82.10;;;25.27;;
49840;SDS011;35738;49.890;5.930;2024-01-15T06:14:21;99.93;;;27.17;;
49840;SDS011;35738;49.890;5.930;2024-01-15T06:16:48;90.60;;;28.60;;
49840;SDS011;35738;49.890;5.930;2024-01-15T06:19:15;93.80;;;27.40;;
49840;SDS011;35738;49.890;5.930;2024-01-15T06:21:42;88.13;;;25.60;;
49840;SDS011;35738;49.890;5.930;2024-01-15T06:24:08;101.53;;;28.10;;
49840;SDS011;35738;49.890;5.930;2024-01-15T06:26:36;99.13;;;28.17;;
49840;SDS011;35738;49.890;5.930;2024-01-15T06:29:03;102.80;;;29.03;;
49840;SDS011;35738;49.890;5.930;2024-01-15T06:31:29;79.47;;;21.10;;
49840;SDS011;35738;49.890;5.930;2024-01-15T06:33:56;103.43;;;30.03;;
49840;SDS011;35738;49.890;5.930;2024-01-15T06:36:23;96.57;;;25.93;;
49840;SDS011;35738;49.890;5.930;2024-01-15T06:38:50;85.03;;;24.27;;
49840;SDS011;35738;49.890;5.930;2024-01-15T06:41:16;85.43;;;25.87;;
49840;SDS011;35738;49.890;5.930;2024-01-15T06:43:43;89.93;;;27.27;;
49840;SDS011;35738;49.890;5.930;2024-01-15T06:46:09;92.97;;;25.70;;
49840;SDS011;35738;49.890;5.930;2024-01-15T06:48:36;72.23;;;20.47;;
49840;SDS011;35738;49.890;5.930;2024-01-15T06:51:02;82.17;;;22.73;;
49840;SDS011;35738;49.890;5.930;2024-01-15T06:53:29;69.03;;;21.33;;
49840;SDS011;35738;49.890;5.930;2024-01-15T06:55:55;72.23;;;20.23;;
49840;SDS011;35738;49.890;5.930;2024-01-15T06:58:22;74.87;;;18.53;;
49840;SDS011;35738;49.890;5.930;2024-01-15T07:00:48;104.43;;;28.73;;
49840;SDS011;35738;49.890;5.930;2024-01-15T07:03:15;112.87;;;31.50;;
49840;SDS011;35738;49.890;5.930;2024-01-15T07:05:42;94.00;;;27.30;;
49840;SDS011;35738;49.890;5.930;2024-01-15T07:08:08;105.17;;;31.07;;
49840;SDS011;35738;49.890;5.930;2024-01-15T07:10:35;97.03;;;30.13;;
49840;SDS011;35738;49.890;5.930;2024-01-15T07:13:03;104.57;;;26.87;;
49840;SDS011;35738;49.890;5.930;2024-01-15T07:15:31;86.87;;;25.03;;
49840;SDS011;35738;49.890;5.930;2024-01-15T07:17:58;99.83;;;26.13;;
49840;SDS011;35738;49.890;5.930;2024-01-15T07:20:24;95.77;;;25.97;;
49840;SDS011;35738;49.890;5.930;2024-01-15T07:22:51;92.23;;;23.87;;
49840;SDS011;35738;49.890;5.930;2024-01-15T07:25:17;90.67;;;24.87;;
49840;SDS011;35738;49.890;5.930;2024-01-15T07:27:44;96.63;;;27.03;;
49840;SDS011;35738;49.890;5.930;2024-01-15T07:30:11;101.77;;;27.90;;
49840;SDS011;35738;49.890;5.930;2024-01-15T07:32:38;90.63;;;27.47;;
49840;SDS011;35738;49.890;5.930;2024-01-15T07:35:05;85.57;;;25.47;;
49840;SDS011;35738;49.890;5.930;2024-01-15T07:37:32;101.20;;;28.37;;
49840;SDS011;35738;49.890;5.930;2024-01-15T07:39:59;90.97;;;25.67;;
49840;SDS011;35738;49.890;5.930;2024-01-15T07:42:26;93.63;;;27.43;;
49840;SDS011;35738;49.890;5.930;2024-01-15T07:44:53;110.77;;;35.73;;
49840;SDS011;35738;49.890;5.930;2024-01-15T07:47:19;85.43;;;26.40;;
49840;SDS011;35738;49.890;5.930;2024-01-15T07:49:46;85.13;;;26.03;;
49840;SDS011;35738;49.890;5.930;2024-01-15T07:52:13;87.37;;;26.20;;
49840;SDS011;35738;49.890;5.930;2024-01-15T07:54:39;83.23;;;26.87;;
49840;SDS011;35738;49.890;5.930;2024-01-15T07:57:06;83.67;;;26.33;;
49840;SDS011;35738;49.890;5.930;2024-01-15T07:59:33;78.90;;;29.53;;
49840;SDS011;35738;49.890;5.930;2024-01-15T08:02:01;74.37;;;23.23;;
49840;SDS011;35738;49.890;5.930;2024-01-15T08:04:28;78.07;;;22.77;;
49840;SDS011;35738;49.890;5.930;2024-01-15T08:06:55;79.17;;;25.63;;
49840;SDS011;35738;49.890;5.930;2024-01-15T08:09:23;84.70;;;26.60;;
49840;SDS011;35738;49.890;5.930;2024-01-15T08:11:49;73.40;;;23.87;;
49840;SDS011;35738;49.890;5.930;2024-01-15T08:14:17;67.10;;;21.67;;
49840;SDS011;35738;49.890;5.930;2024-01-15T08:16:43;68.77;;;20.90;;
49840;SDS011;35738;49.890;5.930;2024-01-15T08:19:10;73.00;;;23.80;;
49840;SDS011;35738;49.890;5.930;2024-01-15T08:21:37;71.40;;;22.40;;
49840;SDS011;35738;49.890;5.930;2024-01-15T08:24:04;64.90;;;19.10;;
49840;SDS011;35738;49.890;5.930;2024-01-15T08:26:31;48.93;;;15.37;;
49840;SDS011;35738;49.890;5.930;2024-01-15T08:28:59;60.73;;;16.77;;
49840;SDS011;35738;49.890;5.930;2024-01-15T08:31:25;73.40;;;22.60;;
49840;SDS011;35738;49.890;5.930;2024-01-15T08:33:52;61.43;;;20.63;;
49840;SDS011;35738;49.890;5.930;2024-01-15T08:36:20;63.33;;;20.67;;
49840;SDS011;35738;49.890;5.930;2024-01-15T08:38:47;51.70;;;16.93;;
49840;SDS011;35738;49.890;5.930;2024-01-15T08:41:14;53.73;;;16.40;;
49840;SDS011;35738;49.890;5.930;2024-01-15T08:43:40;64.53;;;19.07;;
49840;SDS011;35738;49.890;5.930;2024-01-15T08:46:07;70.93;;;25.53;;
49840;SDS011;35738;49.890;5.930;2024-01-15T08:48:34;58.67;;;21.33;;
49840;SDS011;35738;49.890;5.930;2024-01-15T08:51:01;73.10;;;26.47;;
49840;SDS011;35738;49.890;5.930;2024-01-15T08:53:27;71.10;;;24.43;;
49840;SDS011;35738;49.890;5.930;2024-01-15T08:55:54;71.43;;;24.70;;
49840;SDS011;35738;49.890;5.930;2024-01-15T08:58:20;73.10;;;25.30;;
49840;SDS011;35738;49.890;5.930;2024-01-15T09:00:47;63.80;;;22.37;;
49840;SDS011;35738;49.890;5.930;2024-01-15T09:03:13;67.80;;;23.73;;
49840;SDS011;35738;49.890;5.930;2024-01-15T09:05:40;70.03;;;23.60;;
49840;SDS011;35738;49.890;5.930;2024-01-15T09:08:07;69.57;;;22.67;;
49840;SDS011;35738;49.890;5.930;2024-01-15T09:10:34;70.03;;;22.90;;
49840;SDS011;35738;49.890;5.930;2024-01-15T09:13:00;71.23;;;27.37;;
49840;SDS011;35738;49.890;5.930;2024-01-15T09:15:27;68.70;;;24.10;;
49840;SDS011;35738;49.890;5.930;2024-01-15T09:17:54;74.43;;;24.50;;
49840;SDS011;35738;49.890;5.930;2024-01-15T09:20:20;73.70;;;25.83;;
49840;SDS011;35738;49.890;5.930;2024-01-15T09:22:47;72.70;;;26.63;;
49840;SDS011;35738;49.890;5.930;2024-01-15T09:25:13;75.10;;;24.57;;
49840;SDS011;35738;49.890;5.930;2024-01-15T09:27:40;80.43;;;27.10;;
49840;SDS011;35738;49.890;5.930;2024-01-15T09:30:07;74.80;;;27.43;;
49840;SDS011;35738;49.890;5.930;2024-01-15T09:32:34;73.90;;;27.93;;
49840;SDS011;35738;49.890;5.930;2024-01-15T09:35:01;84.43;;;29.23;;
49840;SDS011;35738;49.890;5.930;2024-01-15T09:37:27;72.07;;;24.27;;
49840;SDS011;35738;49.890;5.930;2024-01-15T09:40:12;87.10;;;25.57;;
49840;SDS011;35738;49.890;5.930;2024-01-15T09:42:41;86.90;;;26.57;;
49840;SDS011;35738;49.890;5.930;2024-01-15T09:45:09;65.57;;;21.73;;
49840;SDS011;35738;49.890;5.930;2024-01-15T09:47:36;76.43;;;25.17;;
49840;SDS011;35738;49.890;5.930;2024-01-15T09:50:08;84.87;;;26.93;;
49840;SDS011;35738;49.890;5.930;2024-01-15T09:52:35;77.03;;;26.90;;
49840;SDS011;35738;49.890;5.930;2024-01-15T09:55:03;82.33;;;26.50;;
49840;SDS011;35738;49.890;5.930;2024-01-15T09:57:31;83.90;;;29.47;;
49840;SDS011;35738;49.890;5.930;2024-01-15T09:59:59;82.77;;;28.00;;
49840;SDS011;35738;49.890;5.930;2024-01-15T10:02:30;80.17;;;29.97;;
49840;SDS011;35738;49.890;5.930;2024-01-15T10:04:56;87.13;;;28.20;;
49840;SDS011;35738;49.890;5.930;2024-01-15T10:07:23;79.67;;;27.67;;
49840;SDS011;35738;49.890;5.930;2024-01-15T10:09:52;90.10;;;27.53;;
49840;SDS011;35738;49.890;5.930;2024-01-15T10:12:19;86.17;;;28.17;;
49840;SDS011;35738;49.890;5.930;2024-01-15T10:14:48;78.80;;;28.23;;
49840;SDS011;35738;49.890;5.930;2024-01-15T10:17:15;77.27;;;28.53;;
49840;SDS011;35738;49.890;5.930;2024-01-15T10:19:46;103.33;;;37.60;;
49840;SDS011;35738;49.890;5.930;2024-01-15T10:22:16;82.93;;;27.23;;
49840;SDS011;35738;49.890;5.930;2024-01-15T10:24:45;80.93;;;26.97;;
49840;SDS011;35738;49.890;5.930;2024-01-15T10:27:14;78.43;;;26.37;;
49840;SDS011;35738;49.890;5.930;2024-01-15T10:29:41;77.83;;;24.73;;
49840;SDS011;35738;49.890;5.930;2024-01-15T10:32:08;96.33;;;36.63;;
49840;SDS011;35738;49.890;5.930;2024-01-15T10:34:39;77.27;;;25.87;;
49840;SDS011;35738;49.890;5.930;2024-01-15T10:37:08;75.00;;;27.30;;
49840;SDS011;35738;49.890;5.930;2024-01-15T10:39:36;77.03;;;26.87;;
49840;SDS011;35738;49.890;5.930;2024-01-15T10:42:03;76.83;;;26.00;;
49840;SDS011;35738;49.890;5.930;2024-01-15T10:44:30;98.30;;;33.67;;
49840;SDS011;35738;49.890;5.930;2024-01-15T10:46:57;74.67;;;25.60;;
49840;SDS011;35738;49.890;5.930;2024-01-15T10:49:24;75.93;;;24.90;;
49840;SDS011;35738;49.890;5.930;2024-01-15T10:51:58;67.10;;;25.20;;
49840;SDS011;35738;49.890;5.930;2024-01-15T10:54:25;69.17;;;24.37;;
49840;SDS011;35738;49.890;5.930;2024-01-15T10:56:54;68.67;;;25.60;;
49840;SDS011;35738;49.890;5.930;2024-01-15T10:59:22;80.13;;;25.63;;
49840;SDS011;35738;49.890;5.930;2024-01-15T11:01:52;51.03;;;19.37;;
49840;SDS011;35738;49.890;5.930;2024-01-15T11:04:21;60.37;;;21.40;;
49840;SDS011;35738;49.890;5.930;2024-01-15T11:06:51;61.37;;;20.43;;
49840;SDS011;35738;49.890;5.930;2024-01-15T11:09:21;56.00;;;20.77;;
49840;SDS011;35738;49.890;5.930;2024-01-15T11:11:53;50.77;;;19.03;;
49840;SDS011;35738;49.890;5.930;2024-01-15T11:14:33;39.83;;;16.40;;
49840;SDS011;35738;49.890;5.930;2024-01-15T11:17:01;43.67;;;16.87;;
49840;SDS011;35738;49.890;5.930;2024-01-15T11:19:35;40.97;;;14.63;;
49840;SDS011;35738;49.890;5.930;2024-01-15T11:25:02;34.27;;;13.27;;
49840;SDS011;35738;49.890;5.930;2024-01-15T11:27:46;22.27;;;10.77;;
49840;SDS011;35738;49.890;5.930;2024-01-15T11:30:18;26.63;;;11.63;;
49840;SDS011;35738;49.890;5.930;2024-01-15T11:32:46;26.77;;;12.83;;
49840;SDS011;35738;49.890;5.930;2024-01-15T11:35:13;29.30;;;12.87;;
49840;SDS011;35738;49.890;5.930;2024-01-15T11:40:20;27.10;;;15.88;;
49840;SDS011;35738;49.890;5.930;2024-01-15T11:43:04;26.53;;;12.07;;
49840;SDS011;35738;49.890;5.930;2024-01-15T11:45:33;28.80;;;15.80;;
49840;SDS011;35738;49.890;5.930;2024-01-15T11:50:36;30.53;;;14.17;;
49840;SDS011;35738;49.890;5.930;2024-01-15T11:53:10;22.77;;;9.73;;
49840;SDS011;35738;49.890;5.930;2024-01-15T11:55:44;16.27;;;8.03;;
49840;SDS011;35738;49.890;5.930;2024-01-15T11:58:12;23.20;;;11.83;;
49840;SDS011;35738;49.890;5.930;2024-01-15T12:00:47;20.30;;;9.40;;
49840;SDS011;35738;49.890;5.930;2024-01-15T12:03:16;19.70;;;8.30;;
49840;SDS011;35738;49.890;5.930;2024-01-15T12:05:42;12.20;;;6.83;;
49840;SDS011;35738;49.890;5.930;2024-01-15T12:08:09;19.97;;;10.00;;
49840;SDS011;35738;49.890;5.930;2024-01-15T12:10:39;21.00;;;9.10;;
49840;SDS011;35738;49.890;5.930;2024-01-15T12:13:11;17.80;;;9.27;;
49840;SDS011;35738;49.890;5.930;2024-01-15T12:15:40;18.20;;;8.10;;
49840;SDS011;35738;49.890;5.930;2024-01-15T12:18:10;13.13;;;8.20;;
49840;SDS011;35738;49.890;5.930;2024-01-15T12:20:39;15.53;;;8.10;;
49840;SDS011;35738;49.890;5.930;2024-01-15T12:23:06;14.13;;;6.97;;
49840;SDS011;35738;49.890;5.930;2024-01-15T12:25:35;15.00;;;8.77;;
49840;SDS011;35738;49.890;5.930;2024-01-15T12:28:02;14.70;;;8.17;;
49840;SDS011;35738;49.890;5.930;2024-01-15T12:30:29;17.73;;;9.07;;
49840;SDS011;35738;49.890;5.930;2024-01-15T12:33:03;11.47;;;6.03;;
49840;SDS011;35738;49.890;5.930;2024-01-15T12:35:31;13.73;;;6.50;;
49840;SDS011;35738;49.890;5.930;2024-01-15T12:37:59;12.97;;;5.70;;
49840;SDS011;35738;49.890;5.930;2024-01-15T12:40:28;12.40;;;5.30;;
49840;SDS011;35738;49.890;5.930;2024-01-15T12:42:55;13.50;;;8.30;;
49840;SDS011;35738;49.890;5.930;2024-01-15T12:45:21;10.37;;;5.40;;
49840;SDS011;35738;49.890;5.930;2024-01-15T12:47:48;8.90;;;5.10;;
49840;SDS011;35738;49.890;5.930;2024-01-15T12:50:16;14.40;;;6.03;;
49840;SDS011;35738;49.890;5.930;2024-01-15T12:52:46;9.67;;;4.90;;
49840;SDS011;35738;49.890;5.930;2024-01-15T12:55:13;13.57;;;5.47;;
49840;SDS011;35738;49.890;5.930;2024-01-15T12:57:40;10.10;;;5.60;;
49840;SDS011;35738;49.890;5.930;2024-01-15T13:00:07;6.27;;;4.10;;
49840;SDS011;35738;49.890;5.930;2024-01-15T13:02:41;8.17;;;4.20;;
49840;SDS011;35738;49.890;5.930;2024-01-15T13:05:09;7.37;;;3.93;;
49840;SDS011;35738;49.890;5.930;2024-01-15T13:07:41;7.43;;;3.97;;
49840;SDS011;35738;49.890;5.930;2024-01-15T13:10:09;9.00;;;4.17;;
49840;SDS011;35738;49.890;5.930;2024-01-15T13:12:36;13.50;;;5.53;;
49840;SDS011;35738;49.890;5.930;2024-01-15T13:15:04;10.07;;;4.33;;
49840;SDS011;35738;49.890;5.930;2024-01-15T13:17:34;9.93;;;5.20;;
49840;SDS011;35738;49.890;5.930;2024-01-15T13:20:01;18.90;;;8.27;;
49840;SDS011;35738;49.890;5.930;2024-01-15T13:22:28;10.60;;;4.77;;
49840;SDS011;35738;49.890;5.930;2024-01-15T13:24:59;15.20;;;7.70;;
49840;SDS011;35738;49.890;5.930;2024-01-15T13:27:26;8.00;;;4.07;;
49840;SDS011;35738;49.890;5.930;2024-01-15T13:29:52;7.80;;;3.50;;
49840;SDS011;35738;49.890;5.930;2024-01-15T13:32:24;8.80;;;4.93;;
49840;SDS011;35738;49.890;5.930;2024-01-15T13:34:52;14.67;;;7.27;;
49840;SDS011;35738;49.890;5.930;2024-01-15T13:37:19;11.27;;;5.47;;
49840;SDS011;35738;49.890;5.930;2024-01-15T13:39:46;9.13;;;4.10;;
49840;SDS011;35738;49.890;5.930;2024-01-15T13:42:12;10.93;;;3.83;;
49840;SDS011;35738;49.890;5.930;2024-01-15T13:44:39;9.17;;;4.00;;
49840;SDS011;35738;49.890;5.930;2024-01-15T13:47:05;11.77;;;5.77;;
49840;SDS011;35738;49.890;5.930;2024-01-15T13:49:32;8.30;;;3.63;;
49840;SDS011;35738;49.890;5.930;2024-01-15T13:52:00;8.37;;;3.60;;
49840;SDS011;35738;49.890;5.930;2024-01-15T13:54:27;7.10;;;3.50;;
49840;SDS011;35738;49.890;5.930;2024-01-15T13:57:13;7.23;;;3.23;;
49840;SDS011;35738;49.890;5.930;2024-01-15T13:59:40;7.37;;;3.50;;
49840;SDS011;35738;49.890;5.930;2024-01-15T14:02:07;5.07;;;3.37;;
49840;SDS011;35738;49.890;5.930;2024-01-15T14:04:33;9.10;;;3.87;;
49840;SDS011;35738;49.890;5.930;2024-01-15T14:07:00;9.77;;;3.77;;
49840;SDS011;35738;49.890;5.930;2024-01-15T14:09:26;8.67;;;3.23;;
49840;SDS011;35738;49.890;5.930;2024-01-15T14:11:53;17.77;;;9.57;;
49840;SDS011;35738;49.890;5.930;2024-01-15T14:14:20;6.90;;;3.50;;
49840;SDS011;35738;49.890;5.930;2024-01-15T14:16:46;6.07;;;3.10;;
49840;SDS011;35738;49.890;5.930;2024-01-15T14:19:13;5.07;;;3.30;;
49840;SDS011;35738;49.890;5.930;2024-01-15T14:21:41;24.20;;;9.77;;
49840;SDS011;35738;49.890;5.930;2024-01-15T14:24:08;5.97;;;2.93;;
49840;SDS011;35738;49.890;5.930;2024-01-15T14:26:34;3.53;;;2.83;;
49840;SDS011;35738;49.890;5.930;2024-01-15T14:29:01;5.17;;;2.90;;
49840;SDS011;35738;49.890;5.930;2024-01-15T14:31:27;4.63;;;2.83;;